sensor_id;sensor_type;location;lat;lon;timestamp;pressure;altitude;pressure_sealevel;temperature
82638;BMP280;72318;36.628;-121.932;2023-11-22T00:01:10;74294.38;;;-140.84
82638;BMP280;72318;36.628;-121.932;2023-11-22T00:03:36;74294.38;;;-140.84
82638;BMP280;72318;36.628;-121.932;2023-11-22T00:06:03;74294.38;;;-140.84
82638;BMP280;72318;36.628;-121.932;2023-11-22T00:08:29;74294.38;;;-140.84
82638;BMP280;72318;36.628;-121.932;2023-11-22T00:10:55;74294.38;;;-140.84
82638;BMP280;72318;36.628;-121.932;2023-11-22T00:13:22;74294.38;;;-140.84
82638;BMP280;72318;36.628;-121.932;2023-11-22T00:15:48;74294.38;;;-140.84
82638;BMP280;72318;36.628;-121.932;2023-11-22T00:18:16;74294.38;;;-140.84
82638;BMP280;72318;36.628;-121.932;2023-11-22T00:20:42;74294.38;;;-140.84
82638;BMP280;72318;36.628;-121.932;2023-11-22T00:23:09;74294.38;;;-140.84
82638;BMP280;72318;36.628;-121.932;2023-11-22T00:25:35;74294.38;;;-140.84
82638;BMP280;72318;36.628;-121.932;2023-11-22T00:28:01;74294.38;;;-140.84
82638;BMP280;72318;36.628;-121.932;2023-11-22T00:30:28;74294.38;;;-140.84
82638;BMP280;72318;36.628;-121.932;2023-11-22T00:32:54;74294.38;;;-140.84
82638;BMP280;72318;36.628;-121.932;2023-11-22T00:35:20;74294.38;;;-140.84
82638;BMP280;72318;36.628;-121.932;2023-11-22T00:37:47;74294.38;;;-140.84
82638;BMP280;72318;36.628;-121.932;2023-11-22T00:40:13;74294.38;;;-140.84
82638;BMP280;72318;36.628;-121.932;2023-11-22T00:42:40;74294.38;;;-140.84
82638;BMP280;72318;36.628;-121.932;2023-11-22T00:45:10;74294.38;;;-140.84
82638;BMP280;72318;36.628;-121.932;2023-11-22T00:47:37;74294.38;;;-140.84
82638;BMP280;72318;36.628;-121.932;2023-11-22T00:50:05;74294.38;;;-140.84
82638;BMP280;72318;36.628;-121.932;2023-11-22T00:52:31;74294.38;;;-140.84
82638;BMP280;72318;36.628;-121.932;2023-11-22T00:54:57;74294.38;;;-140.84
82638;BMP280;72318;36.628;-121.932;2023-11-22T00:57:24;74294.38;;;-140.84
82638;BMP280;72318;36.628;-121.932;2023-11-22T00:59:53;74294.38;;;-140.84
82638;BMP280;72318;36.628;-121.932;2023-11-22T01:02:19;74294.38;;;-140.84
82638;BMP280;72318;36.628;-121.932;2023-11-22T01:04:46;74294.38;;;-140.84
82638;BMP280;72318;36.628;-121.932;2023-11-22T01:07:12;74294.38;;;-140.84
82638;BMP280;72318;36.628;-121.932;2023-11-22T01:09:38;74294.38;;;-140.84
82638;BMP280;72318;36.628;-121.932;2023-11-22T01:12:05;74294.38;;;-140.84
82638;BMP280;72318;36.628;-121.932;2023-11-22T01:14:36;74294.38;;;-140.84
82638;BMP280;72318;36.628;-121.932;2023-11-22T01:17:03;74294.38;;;-140.84
82638;BMP280;72318;36.628;-121.932;2023-11-22T01:19:29;74294.38;;;-140.84
82638;BMP280;72318;36.628;-121.932;2023-11-22T01:21:55;74294.38;;;-140.84
82638;BMP280;72318;36.628;-121.932;2023-11-22T01:24:22;74294.38;;;-140.84
82638;BMP280;72318;36.628;-121.932;2023-11-22T01:26:49;74294.38;;;-140.84
82638;BMP280;72318;36.628;-121.932;2023-11-22T01:29:15;74294.38;;;-140.84
82638;BMP280;72318;36.628;-121.932;2023-11-22T01:31:41;74294.38;;;-140.84
82638;BMP280;72318;36.628;-121.932;2023-11-22T01:34:09;74294.38;;;-140.84
82638;BMP280;72318;36.628;-121.932;2023-11-22T01:36:35;74294.38;;;-140.84
82638;BMP280;72318;36.628;-121.932;2023-11-22T01:39:02;74294.38;;;-140.84
82638;BMP280;72318;36.628;-121.932;2023-11-22T01:41:28;74294.38;;;-140.84
82638;BMP280;72318;36.628;-121.932;2023-11-22T01:43:55;74294.38;;;-140.84
82638;BMP280;72318;36.628;-121.932;2023-11-22T01:46:25;74294.38;;;-140.84
82638;BMP280;72318;36.628;-121.932;2023-11-22T01:48:52;74294.38;;;-140.84
82638;BMP280;72318;36.628;-121.932;2023-11-22T01:51:23;74294.38;;;-140.84
82638;BMP280;72318;36.628;-121.932;2023-11-22T01:53:52;74294.38;;;-140.84
82638;BMP280;72318;36.628;-121.932;2023-11-22T01:56:26;74294.38;;;-140.84
82638;BMP280;72318;36.628;-121.932;2023-11-22T01:58:54;74294.38;;;-140.84
82638;BMP280;72318;36.628;-121.932;2023-11-22T02:01:20;74294.38;;;-140.84
82638;BMP280;72318;36.628;-121.932;2023-11-22T02:03:47;74294.38;;;-140.84
82638;BMP280;72318;36.628;-121.932;2023-11-22T02:06:15;74294.38;;;-140.84
82638;BMP280;72318;36.628;-121.932;2023-11-22T02:08:44;74294.38;;;-140.84
82638;BMP280;72318;36.628;-121.932;2023-11-22T02:11:17;74294.38;;;-140.84
82638;BMP280;72318;36.628;-121.932;2023-11-22T02:13:48;74294.38;;;-140.84
82638;BMP280;72318;36.628;-121.932;2023-11-22T02:16:18;74294.38;;;-140.84
82638;BMP280;72318;36.628;-121.932;2023-11-22T02:18:47;74294.38;;;-140.84
82638;BMP280;72318;36.628;-121.932;2023-11-22T02:21:15;74294.38;;;-140.84
82638;BMP280;72318;36.628;-121.932;2023-11-22T02:23:42;74294.38;;;-140.84
82638;BMP280;72318;36.628;-121.932;2023-11-22T02:26:08;74294.38;;;-140.84
82638;BMP280;72318;36.628;-121.932;2023-11-22T02:28:34;74294.38;;;-140.84
82638;BMP280;72318;36.628;-121.932;2023-11-22T02:31:01;74294.38;;;-140.84
82638;BMP280;72318;36.628;-121.932;2023-11-22T02:33:29;74294.38;;;-140.84
82638;BMP280;72318;36.628;-121.932;2023-11-22T02:35:55;74294.38;;;-140.84
82638;BMP280;72318;36.628;-121.932;2023-11-22T02:38:22;74294.38;;;-140.84
82638;BMP280;72318;36.628;-121.932;2023-11-22T02:40:48;74294.38;;;-140.84
82638;BMP280;72318;36.628;-121.932;2023-11-22T02:43:16;74294.38;;;-140.84
82638;BMP280;72318;36.628;-121.932;2023-11-22T02:45:43;74294.38;;;-140.84
82638;BMP280;72318;36.628;-121.932;2023-11-22T02:48:09;74294.38;;;-140.84
82638;BMP280;72318;36.628;-121.932;2023-11-22T02:50:36;74294.38;;;-140.84
82638;BMP280;72318;36.628;-121.932;2023-11-22T02:53:05;74294.38;;;-140.84
82638;BMP280;72318;36.628;-121.932;2023-11-22T02:55:31;74294.38;;;-140.84
82638;BMP280;72318;36.628;-121.932;2023-11-22T02:57:57;74294.38;;;-140.84
82638;BMP280;72318;36.628;-121.932;2023-11-22T03:00:24;74294.38;;;-140.84
82638;BMP280;72318;36.628;-121.932;2023-11-22T03:02:50;74294.38;;;-140.84
82638;BMP280;72318;36.628;-121.932;2023-11-22T03:05:21;74294.38;;;-140.84
82638;BMP280;72318;36.628;-121.932;2023-11-22T03:07:47;74294.38;;;-140.84
82638;BMP280;72318;36.628;-121.932;2023-11-22T03:10:14;74294.38;;;-140.84
82638;BMP280;72318;36.628;-121.932;2023-11-22T03:12:40;74294.38;;;-140.84
82638;BMP280;72318;36.628;-121.932;2023-11-22T03:15:06;74294.38;;;-140.84
82638;BMP280;72318;36.628;-121.932;2023-11-22T03:17:33;74294.38;;;-140.84
82638;BMP280;72318;36.628;-121.932;2023-11-22T03:19:59;74294.38;;;-140.84
82638;BMP280;72318;36.628;-121.932;2023-11-22T03:22:29;74294.38;;;-140.84
82638;BMP280;72318;36.628;-121.932;2023-11-22T03:24:56;74294.38;;;-140.84
82638;BMP280;72318;36.628;-121.932;2023-11-22T03:27:30;74294.38;;;-140.84
82638;BMP280;72318;36.628;-121.932;2023-11-22T03:29:56;74294.38;;;-140.84
82638;BMP280;72318;36.628;-121.932;2023-11-22T03:32:22;74294.38;;;-140.84
82638;BMP280;72318;36.628;-121.932;2023-11-22T03:34:48;74294.38;;;-140.84
82638;BMP280;72318;36.628;-121.932;2023-11-22T03:37:15;74294.38;;;-140.84
82638;BMP280;72318;36.628;-121.932;2023-11-22T03:39:41;74294.38;;;-140.84
82638;BMP280;72318;36.628;-121.932;2023-11-22T03:42:16;74294.38;;;-140.84
82638;BMP280;72318;36.628;-121.932;2023-11-22T03:44:43;74294.38;;;-140.84
82638;BMP280;72318;36.628;-121.932;2023-11-22T03:47:15;74294.38;;;-140.84
82638;BMP280;72318;36.628;-121.932;2023-11-22T03:49:41;74294.38;;;-140.84
82638;BMP280;72318;36.628;-121.932;2023-11-22T03:52:10;74294.38;;;-140.84
82638;BMP280;72318;36.628;-121.932;2023-11-22T03:54:37;74294.38;;;-140.84
82638;BMP280;72318;36.628;-121.932;2023-11-22T03:57:05;74294.38;;;-140.84
82638;BMP280;72318;36.628;-121.932;2023-11-22T03:59:33;74294.38;;;-140.84
82638;BMP280;72318;36.628;-121.932;2023-11-22T04:02:00;74294.38;;;-140.84
82638;BMP280;72318;36.628;-121.932;2023-11-22T04:04:26;74294.38;;;-140.84
82638;BMP280;72318;36.628;-121.932;2023-11-22T04:06:52;74294.38;;;-140.84
82638;BMP280;72318;36.628;-121.932;2023-11-22T04:09:19;74294.38;;;-140.84
82638;BMP280;72318;36.628;-121.932;2023-11-22T04:11:46;74294.38;;;-140.84
82638;BMP280;72318;36.628;-121.932;2023-11-22T04:14:13;74294.38;;;-140.84
82638;BMP280;72318;36.628;-121.932;2023-11-22T04:16:39;74294.38;;;-140.84
82638;BMP280;72318;36.628;-121.932;2023-11-22T04:19:06;74294.38;;;-140.84
82638;BMP280;72318;36.628;-121.932;2023-11-22T04:21:32;74294.38;;;-140.84
82638;BMP280;72318;36.628;-121.932;2023-11-22T04:23:58;74294.38;;;-140.84
82638;BMP280;72318;36.628;-121.932;2023-11-22T04:26:25;74294.38;;;-140.84
82638;BMP280;72318;36.628;-121.932;2023-11-22T04:28:52;74294.38;;;-140.84
82638;BMP280;72318;36.628;-121.932;2023-11-22T04:31:18;74294.38;;;-140.84
82638;BMP280;72318;36.628;-121.932;2023-11-22T04:33:45;74294.38;;;-140.84
82638;BMP280;72318;36.628;-121.932;2023-11-22T04:36:11;74294.38;;;-140.84
82638;BMP280;72318;36.628;-121.932;2023-11-22T04:38:37;74294.38;;;-140.84
82638;BMP280;72318;36.628;-121.932;2023-11-22T04:41:04;74294.38;;;-140.84
82638;BMP280;72318;36.628;-121.932;2023-11-22T04:43:30;74294.38;;;-140.84
82638;BMP280;72318;36.628;-121.932;2023-11-22T04:45:57;74294.38;;;-140.84
82638;BMP280;72318;36.628;-121.932;2023-11-22T04:48:23;74294.38;;;-140.84
82638;BMP280;72318;36.628;-121.932;2023-11-22T04:50:50;74294.38;;;-140.84
82638;BMP280;72318;36.628;-121.932;2023-11-22T04:53:16;74294.38;;;-140.84
82638;BMP280;72318;36.628;-121.932;2023-11-22T04:55:43;74294.38;;;-140.84
82638;BMP280;72318;36.628;-121.932;2023-11-22T04:58:09;74294.38;;;-140.84
82638;BMP280;72318;36.628;-121.932;2023-11-22T05:00:36;74294.38;;;-140.84
82638;BMP280;72318;36.628;-121.932;2023-11-22T05:03:02;74294.38;;;-140.84
82638;BMP280;72318;36.628;-121.932;2023-11-22T05:05:29;74294.38;;;-140.84
82638;BMP280;72318;36.628;-121.932;2023-11-22T05:07:55;74294.38;;;-140.84
82638;BMP280;72318;36.628;-121.932;2023-11-22T05:10:21;74294.38;;;-140.84
82638;BMP280;72318;36.628;-121.932;2023-11-22T05:12:47;74294.38;;;-140.84
82638;BMP280;72318;36.628;-121.932;2023-11-22T05:15:13;74294.38;;;-140.84
82638;BMP280;72318;36.628;-121.932;2023-11-22T05:17:40;74294.38;;;-140.84
82638;BMP280;72318;36.628;-121.932;2023-11-22T05:20:07;74294.38;;;-140.84
82638;BMP280;72318;36.628;-121.932;2023-11-22T05:22:36;74294.38;;;-140.84
82638;BMP280;72318;36.628;-121.932;2023-11-22T05:25:05;74294.38;;;-140.84
82638;BMP280;72318;36.628;-121.932;2023-11-22T05:27:32;74294.38;;;-140.84
82638;BMP280;72318;36.628;-121.932;2023-11-22T05:29:59;74294.38;;;-140.84
82638;BMP280;72318;36.628;-121.932;2023-11-22T05:32:27;74294.38;;;-140.84
82638;BMP280;72318;36.628;-121.932;2023-11-22T05:34:54;74294.38;;;-140.84
82638;BMP280;72318;36.628;-121.932;2023-11-22T05:37:23;74294.38;;;-140.84
82638;BMP280;72318;36.628;-121.932;2023-11-22T05:39:49;74294.38;;;-140.84
82638;BMP280;72318;36.628;-121.932;2023-11-22T05:42:16;74294.38;;;-140.84
82638;BMP280;72318;36.628;-121.932;2023-11-22T05:44:43;74294.38;;;-140.84
82638;BMP280;72318;36.628;-121.932;2023-11-22T05:47:10;74294.38;;;-140.84
82638;BMP280;72318;36.628;-121.932;2023-11-22T05:49:38;74294.38;;;-140.84
82638;BMP280;72318;36.628;-121.932;2023-11-22T05:52:05;74294.38;;;-140.84
82638;BMP280;72318;36.628;-121.932;2023-11-22T05:54:31;74294.38;;;-140.84
82638;BMP280;72318;36.628;-121.932;2023-11-22T05:56:57;74294.38;;;-140.84
82638;BMP280;72318;36.628;-121.932;2023-11-22T05:59:24;74294.38;;;-140.84
82638;BMP280;72318;36.628;-121.932;2023-11-22T06:01:50;74294.38;;;-140.84
82638;BMP280;72318;36.628;-121.932;2023-11-22T06:04:16;74294.38;;;-140.84
82638;BMP280;72318;36.628;-121.932;2023-11-22T06:06:42;74294.38;;;-140.84
82638;BMP280;72318;36.628;-121.932;2023-11-22T06:09:09;74294.38;;;-140.84
82638;BMP280;72318;36.628;-121.932;2023-11-22T06:11:42;74294.38;;;-140.84
82638;BMP280;72318;36.628;-121.932;2023-11-22T06:14:08;74294.38;;;-140.84
82638;BMP280;72318;36.628;-121.932;2023-11-22T06:16:34;74294.38;;;-140.84
82638;BMP280;72318;36.628;-121.932;2023-11-22T06:19:01;74294.38;;;-140.84
82638;BMP280;72318;36.628;-121.932;2023-11-22T06:21:27;74294.38;;;-140.84
82638;BMP280;72318;36.628;-121.932;2023-11-22T06:23:53;74294.38;;;-140.84
82638;BMP280;72318;36.628;-121.932;2023-11-22T06:29:45;74294.38;;;-140.84
82638;BMP280;72318;36.628;-121.932;2023-11-22T06:32:12;74294.38;;;-140.84
82638;BMP280;72318;36.628;-121.932;2023-11-22T06:34:39;74294.38;;;-140.84
82638;BMP280;72318;36.628;-121.932;2023-11-22T06:37:06;74294.38;;;-140.84
82638;BMP280;72318;36.628;-121.932;2023-11-22T06:39:34;74294.38;;;-140.84
82638;BMP280;72318;36.628;-121.932;2023-11-22T06:42:01;74294.38;;;-140.84
82638;BMP280;72318;36.628;-121.932;2023-11-22T06:44:28;74294.38;;;-140.84
82638;BMP280;72318;36.628;-121.932;2023-11-22T06:46:54;74294.38;;;-140.84
82638;BMP280;72318;36.628;-121.932;2023-11-22T06:49:20;74294.38;;;-140.84
82638;BMP280;72318;36.628;-121.932;2023-11-22T06:51:46;74294.38;;;-140.84
82638;BMP280;72318;36.628;-121.932;2023-11-22T06:54:13;74294.38;;;-140.84
82638;BMP280;72318;36.628;-121.932;2023-11-22T06:56:39;74294.38;;;-140.84
82638;BMP280;72318;36.628;-121.932;2023-11-22T06:59:05;74294.38;;;-140.84
82638;BMP280;72318;36.628;-121.932;2023-11-22T07:01:31;74294.38;;;-140.84
82638;BMP280;72318;36.628;-121.932;2023-11-22T07:05:24;102291.41;;;17.74
82638;BMP280;72318;36.628;-121.932;2023-11-22T07:07:51;102291.34;;;17.67
82638;BMP280;72318;36.628;-121.932;2023-11-22T07:10:19;102284.66;;;17.57
82638;BMP280;72318;36.628;-121.932;2023-11-22T07:12:46;102282.69;;;17.54
82638;BMP280;72318;36.628;-121.932;2023-11-22T07:15:13;102271.69;;;17.74
82638;BMP280;72318;36.628;-121.932;2023-11-22T07:17:39;102279.06;;;17.80
82638;BMP280;72318;36.628;-121.932;2023-11-22T07:20:07;102259.75;;;17.85
82638;BMP280;72318;36.628;-121.932;2023-11-22T07:22:42;102268.34;;;17.94
82638;BMP280;72318;36.628;-121.932;2023-11-22T07:25:09;102271.41;;;17.89
82638;BMP280;72318;36.628;-121.932;2023-11-22T07:27:45;102271.53;;;17.26
82638;BMP280;72318;36.628;-121.932;2023-11-22T07:30:13;102266.91;;;17.30
82638;BMP280;72318;36.628;-121.932;2023-11-22T07:32:40;102275.16;;;17.37
82638;BMP280;72318;36.628;-121.932;2023-11-22T07:35:12;102281.72;;;17.36
82638;BMP280;72318;36.628;-121.932;2023-11-22T07:37:39;102282.50;;;17.37
82638;BMP280;72318;36.628;-121.932;2023-11-22T07:40:07;102270.81;;;16.99
82638;BMP280;72318;36.628;-121.932;2023-11-22T07:42:34;102271.44;;;16.85
82638;BMP280;72318;36.628;-121.932;2023-11-22T07:45:01;102256.22;;;16.51
82638;BMP280;72318;36.628;-121.932;2023-11-22T07:47:27;102259.78;;;15.83
82638;BMP280;72318;36.628;-121.932;2023-11-22T07:49:54;102263.13;;;15.76
82638;BMP280;72318;36.628;-121.932;2023-11-22T07:52:24;102261.31;;;15.84
82638;BMP280;72318;36.628;-121.932;2023-11-22T07:54:58;102259.19;;;16.68
82638;BMP280;72318;36.628;-121.932;2023-11-22T07:57:25;102257.13;;;16.58
82638;BMP280;72318;36.628;-121.932;2023-11-22T07:59:51;102265.47;;;17.36
82638;BMP280;72318;36.628;-121.932;2023-11-22T08:02:21;102264.53;;;17.58
82638;BMP280;72318;36.628;-121.932;2023-11-22T08:04:48;102260.84;;;17.77
82638;BMP280;72318;36.628;-121.932;2023-11-22T08:07:16;102261.38;;;17.53
82638;BMP280;72318;36.628;-121.932;2023-11-22T08:09:42;102271.75;;;17.44
82638;BMP280;72318;36.628;-121.932;2023-11-22T08:12:11;102264.84;;;17.50
82638;BMP280;72318;36.628;-121.932;2023-11-22T08:14:38;102256.75;;;17.20
82638;BMP280;72318;36.628;-121.932;2023-11-22T08:17:06;102258.78;;;17.30
82638;BMP280;72318;36.628;-121.932;2023-11-22T08:19:32;102256.63;;;17.43
82638;BMP280;72318;36.628;-121.932;2023-11-22T08:21:59;102250.56;;;17.19
82638;BMP280;72318;36.628;-121.932;2023-11-22T08:24:28;102243.34;;;16.67
82638;BMP280;72318;36.628;-121.932;2023-11-22T08:26:54;102239.75;;;16.89
82638;BMP280;72318;36.628;-121.932;2023-11-22T08:29:20;102241.84;;;17.37
82638;BMP280;72318;36.628;-121.932;2023-11-22T08:31:47;102238.53;;;17.17
82638;BMP280;72318;36.628;-121.932;2023-11-22T08:34:16;102236.31;;;16.92
82638;BMP280;72318;36.628;-121.932;2023-11-22T08:36:43;102238.69;;;17.31
82638;BMP280;72318;36.628;-121.932;2023-11-22T08:39:09;102230.50;;;17.24
82638;BMP280;72318;36.628;-121.932;2023-11-22T08:41:39;102231.91;;;17.14
82638;BMP280;72318;36.628;-121.932;2023-11-22T08:44:05;102207.25;;;16.59
82638;BMP280;72318;36.628;-121.932;2023-11-22T08:46:33;102217.16;;;17.08
82638;BMP280;72318;36.628;-121.932;2023-11-22T08:49:00;102222.88;;;17.03
82638;BMP280;72318;36.628;-121.932;2023-11-22T08:51:28;102213.28;;;16.76
82638;BMP280;72318;36.628;-121.932;2023-11-22T08:53:57;102214.81;;;16.47
82638;BMP280;72318;36.628;-121.932;2023-11-22T08:56:23;102202.44;;;16.76
82638;BMP280;72318;36.628;-121.932;2023-11-22T08:58:50;102203.81;;;16.92
82638;BMP280;72318;36.628;-121.932;2023-11-22T09:01:16;102199.03;;;16.82
82638;BMP280;72318;36.628;-121.932;2023-11-22T09:03:44;102192.16;;;16.32
82638;BMP280;72318;36.628;-121.932;2023-11-22T09:06:10;102180.47;;;16.51
82638;BMP280;72318;36.628;-121.932;2023-11-22T09:08:37;102172.81;;;17.23
82638;BMP280;72318;36.628;-121.932;2023-11-22T09:11:03;102179.06;;;17.27
82638;BMP280;72318;36.628;-121.932;2023-11-22T09:13:33;102165.91;;;17.29
82638;BMP280;72318;36.628;-121.932;2023-11-22T09:16:00;102165.03;;;17.18
82638;BMP280;72318;36.628;-121.932;2023-11-22T09:18:26;102163.81;;;17.16
82638;BMP280;72318;36.628;-121.932;2023-11-22T09:20:53;102159.31;;;17.30
82638;BMP280;72318;36.628;-121.932;2023-11-22T09:23:19;102160.22;;;17.05
82638;BMP280;72318;36.628;-121.932;2023-11-22T09:25:46;102167.66;;;16.78
82638;BMP280;72318;36.628;-121.932;2023-11-22T09:28:16;102158.69;;;16.74
82638;BMP280;72318;36.628;-121.932;2023-11-22T09:30:45;102162.28;;;16.51
82638;BMP280;72318;36.628;-121.932;2023-11-22T09:33:17;102142.28;;;16.59
82638;BMP280;72318;36.628;-121.932;2023-11-22T09:35:45;102151.75;;;16.73
82638;BMP280;72318;36.628;-121.932;2023-11-22T09:38:12;102144.34;;;17.03
82638;BMP280;72318;36.628;-121.932;2023-11-22T09:40:48;102143.91;;;16.97
82638;BMP280;72318;36.628;-121.932;2023-11-22T09:43:19;102147.56;;;17.16
82638;BMP280;72318;36.628;-121.932;2023-11-22T09:45:49;102150.59;;;17.11
82638;BMP280;72318;36.628;-121.932;2023-11-22T09:48:20;102150.06;;;16.94
82638;BMP280;72318;36.628;-121.932;2023-11-22T09:50:57;102148.00;;;17.21
82638;BMP280;72318;36.628;-121.932;2023-11-22T09:53:33;102142.44;;;17.44
82638;BMP280;72318;36.628;-121.932;2023-11-22T09:56:02;102139.78;;;17.11
82638;BMP280;72318;36.628;-121.932;2023-11-22T09:58:30;102137.28;;;16.95
82638;BMP280;72318;36.628;-121.932;2023-11-22T10:01:03;102141.31;;;17.08
82638;BMP280;72318;36.628;-121.932;2023-11-22T10:03:33;102133.19;;;17.08
82638;BMP280;72318;36.628;-121.932;2023-11-22T10:06:00;102133.41;;;17.29
82638;BMP280;72318;36.628;-121.932;2023-11-22T10:08:26;102140.22;;;17.16
82638;BMP280;72318;36.628;-121.932;2023-11-22T10:10:59;102137.63;;;17.30
82638;BMP280;72318;36.628;-121.932;2023-11-22T10:13:26;102131.09;;;16.94
82638;BMP280;72318;36.628;-121.932;2023-11-22T10:15:53;102133.22;;;17.12
82638;BMP280;72318;36.628;-121.932;2023-11-22T10:18:20;102132.97;;;17.24
82638;BMP280;72318;36.628;-121.932;2023-11-22T10:20:48;102131.50;;;17.33
82638;BMP280;72318;36.628;-121.932;2023-11-22T10:23:17;102120.03;;;17.51
82638;BMP280;72318;36.628;-121.932;2023-11-22T10:25:49;102116.53;;;17.50
82638;BMP280;72318;36.628;-121.932;2023-11-22T10:28:20;102112.81;;;17.69
82638;BMP280;72318;36.628;-121.932;2023-11-22T10:30:48;102113.56;;;17.18
82638;BMP280;72318;36.628;-121.932;2023-11-22T10:33:15;102105.53;;;16.58
82638;BMP280;72318;36.628;-121.932;2023-11-22T10:35:45;102109.41;;;17.35
82638;BMP280;72318;36.628;-121.932;2023-11-22T10:38:15;102116.81;;;17.38
82638;BMP280;72318;36.628;-121.932;2023-11-22T10:40:41;102104.84;;;17.43
82638;BMP280;72318;36.628;-121.932;2023-11-22T10:43:11;102113.34;;;17.38
82638;BMP280;72318;36.628;-121.932;2023-11-22T10:45:38;102115.84;;;17.13
82638;BMP280;72318;36.628;-121.932;2023-11-22T10:48:05;102110.91;;;16.55
82638;BMP280;72318;36.628;-121.932;2023-11-22T10:50:34;102111.19;;;16.80
82638;BMP280;72318;36.628;-121.932;2023-11-22T10:53:06;102107.94;;;17.00
82638;BMP280;72318;36.628;-121.932;2023-11-22T10:55:33;102106.41;;;16.66
82638;BMP280;72318;36.628;-121.932;2023-11-22T10:58:06;102109.25;;;16.77
82638;BMP280;72318;36.628;-121.932;2023-11-22T11:00:34;102104.09;;;17.01
82638;BMP280;72318;36.628;-121.932;2023-11-22T11:03:14;102105.25;;;17.00
82638;BMP280;72318;36.628;-121.932;2023-11-22T11:05:58;102106.94;;;17.16
82638;BMP280;72318;36.628;-121.932;2023-11-22T11:08:26;102107.47;;;16.58
82638;BMP280;72318;36.628;-121.932;2023-11-22T11:10:54;102112.16;;;16.94
82638;BMP280;72318;36.628;-121.932;2023-11-22T11:13:24;102115.72;;;16.68
82638;BMP280;72318;36.628;-121.932;2023-11-22T11:15:52;102108.41;;;16.43
82638;BMP280;72318;36.628;-121.932;2023-11-22T11:18:20;102099.97;;;16.44
82638;BMP280;72318;36.628;-121.932;2023-11-22T11:20:49;102089.53;;;16.76
82638;BMP280;72318;36.628;-121.932;2023-11-22T11:23:19;102086.47;;;16.81
82638;BMP280;72318;36.628;-121.932;2023-11-22T11:26:09;102086.00;;;16.72
82638;BMP280;72318;36.628;-121.932;2023-11-22T11:28:45;102081.75;;;16.75
82638;BMP280;72318;36.628;-121.932;2023-11-22T11:31:13;102090.63;;;16.72
82638;BMP280;72318;36.628;-121.932;2023-11-22T11:38:53;102097.50;;;16.65
82638;BMP280;72318;36.628;-121.932;2023-11-22T11:41:27;102105.28;;;16.70
82638;BMP280;72318;36.628;-121.932;2023-11-22T11:43:56;102098.19;;;16.59
82638;BMP280;72318;36.628;-121.932;2023-11-22T11:46:22;102093.41;;;16.45
82638;BMP280;72318;36.628;-121.932;2023-11-22T11:48:54;102092.41;;;16.57
82638;BMP280;72318;36.628;-121.932;2023-11-22T11:51:26;102086.09;;;16.49
82638;BMP280;72318;36.628;-121.932;2023-11-22T11:53:53;102085.97;;;16.38
82638;BMP280;72318;36.628;-121.932;2023-11-22T11:56:20;102074.34;;;16.38
82638;BMP280;72318;36.628;-121.932;2023-11-22T11:58:49;102074.25;;;16.61
82638;BMP280;72318;36.628;-121.932;2023-11-22T12:01:16;102072.56;;;16.49
82638;BMP280;72318;36.628;-121.932;2023-11-22T12:03:43;102069.56;;;16.58
82638;BMP280;72318;36.628;-121.932;2023-11-22T12:06:10;102070.97;;;16.45
82638;BMP280;72318;36.628;-121.932;2023-11-22T12:08:36;102068.88;;;16.64
82638;BMP280;72318;36.628;-121.932;2023-11-22T12:11:03;102061.88;;;16.60
82638;BMP280;72318;36.628;-121.932;2023-11-22T12:13:32;102061.53;;;16.61
82638;BMP280;72318;36.628;-121.932;2023-11-22T12:15:58;102068.31;;;16.48
82638;BMP280;72318;36.628;-121.932;2023-11-22T12:18:26;102064.25;;;16.65
82638;BMP280;72318;36.628;-121.932;2023-11-22T12:20:59;102050.75;;;16.35
82638;BMP280;72318;36.628;-121.932;2023-11-22T12:23:27;102047.00;;;16.13
82638;BMP280;72318;36.628;-121.932;2023-11-22T12:25:57;102054.06;;;16.21
82638;BMP280;72318;36.628;-121.932;2023-11-22T12:28:26;102057.16;;;16.20
82638;BMP280;72318;36.628;-121.932;2023-11-22T12:30:52;102052.50;;;15.67
82638;BMP280;72318;36.628;-121.932;2023-11-22T12:33:19;102059.28;;;16.07
82638;BMP280;72318;36.628;-121.932;2023-11-22T12:35:46;102052.97;;;15.69
82638;BMP280;72318;36.628;-121.932;2023-11-22T12:38:14;102044.72;;;15.89
82638;BMP280;72318;36.628;-121.932;2023-11-22T12:40:46;102048.00;;;16.31
82638;BMP280;72318;36.628;-121.932;2023-11-22T12:43:14;102043.69;;;16.27
82638;BMP280;72318;36.628;-121.932;2023-11-22T12:45:41;102046.84;;;16.32
82638;BMP280;72318;36.628;-121.932;2023-11-22T12:48:22;102044.00;;;16.22
82638;BMP280;72318;36.628;-121.932;2023-11-22T12:50:52;102041.88;;;16.34
82638;BMP280;72318;36.628;-121.932;2023-11-22T12:53:19;102037.56;;;16.30
82638;BMP280;72318;36.628;-121.932;2023-11-22T12:55:49;102050.03;;;16.08
82638;BMP280;72318;36.628;-121.932;2023-11-22T12:58:17;102044.16;;;16.02
82638;BMP280;72318;36.628;-121.932;2023-11-22T13:00:47;102032.44;;;15.95
82638;BMP280;72318;36.628;-121.932;2023-11-22T13:03:14;102031.28;;;15.92
82638;BMP280;72318;36.628;-121.932;2023-11-22T13:05:41;102034.19;;;15.80
82638;BMP280;72318;36.628;-121.932;2023-11-22T13:08:12;102034.31;;;15.38
82638;BMP280;72318;36.628;-121.932;2023-11-22T13:10:48;102025.94;;;15.73
82638;BMP280;72318;36.628;-121.932;2023-11-22T13:13:23;102025.03;;;16.18
82638;BMP280;72318;36.628;-121.932;2023-11-22T13:15:50;102018.75;;;16.11
82638;BMP280;72318;36.628;-121.932;2023-11-22T13:18:19;102009.72;;;15.99
82638;BMP280;72318;36.628;-121.932;2023-11-22T13:20:47;102007.78;;;15.96
82638;BMP280;72318;36.628;-121.932;2023-11-22T13:23:14;102005.59;;;15.79
82638;BMP280;72318;36.628;-121.932;2023-11-22T13:25:41;102018.19;;;16.24
82638;BMP280;72318;36.628;-121.932;2023-11-22T13:28:07;102015.84;;;15.93
82638;BMP280;72318;36.628;-121.932;2023-11-22T13:30:34;102003.72;;;15.83